createdAt,value
2017-04-02T00:00:57.729Z,55.03
2017-04-02T00:02:03.928Z,51.62
2017-04-02T00:03:10.155Z,57.25
2017-04-02T00:04:16.456Z,60.15
2017-04-02T00:05:22.627Z,78.10
2017-04-02T00:06:28.876Z,91.65
2017-04-02T00:07:34.988Z,82.03
2017-04-02T00:08:41.189Z,75.45
2017-04-02T00:09:47.204Z,81.83
2017-04-02T00:10:53.206Z,74.63
2017-04-02T00:11:59.112Z,72.12
2017-04-02T00:13:05.100Z,67.72
2017-04-02T00:14:11.175Z,71.50
2017-04-02T00:15:17.361Z,70.37
2017-04-02T00:16:23.397Z,68.70
2017-04-02T00:17:30.260Z,66.55
2017-04-02T00:18:36.572Z,63.77
2017-04-02T00:19:42.589Z,67.38
2017-04-02T00:20:48.659Z,63.55
2017-04-02T00:21:54.727Z,69.82
2017-04-02T00:23:00.903Z,62.52
2017-04-02T00:24:06.977Z,60.40
2017-04-02T00:25:12.936Z,47.65
2017-04-02T00:26:19.028Z,53.08
2017-04-02T00:27:25.214Z,57.35
2017-04-02T00:28:31.327Z,59.83
2017-04-02T00:29:37.415Z,58.30
2017-04-02T00:30:43.369Z,67.62
2017-04-02T00:31:49.477Z,63.40
2017-04-02T00:32:56.322Z,57.05
2017-04-02T00:34:02.588Z,66.03
2017-04-02T00:35:08.684Z,68.98
2017-04-02T00:36:14.732Z,63.62
2017-04-02T00:37:20.708Z,66.02
2017-04-02T00:38:26.821Z,73.17
2017-04-02T00:39:32.993Z,81.62
2017-04-02T00:40:39.632Z,72.57
2017-04-02T00:41:45.712Z,71.08
2017-04-02T00:42:52.612Z,64.17
2017-04-02T00:43:58.659Z,55.10
2017-04-02T00:45:04.644Z,55.85
2017-04-02T00:46:10.533Z,67.48
2017-04-02T00:47:16.663Z,63.40
2017-04-02T00:48:22.857Z,61.90
2017-04-02T00:49:28.763Z,68.65
2017-04-02T00:50:35.027Z,73.45
2017-04-02T00:51:40.980Z,69.93
2017-04-02T00:52:47.086Z,75.33
2017-04-02T00:53:53.112Z,79.05
2017-04-02T00:54:59.191Z,83.18
2017-04-02T00:56:05.172Z,82.82
2017-04-02T00:57:11.157Z,76.70
2017-04-02T00:58:17.179Z,71.45
2017-04-02T00:59:23.230Z,70.75
2017-04-02T01:00:29.236Z,66.17
2017-04-02T01:01:35.304Z,63.50
2017-04-02T01:02:41.236Z,63.97
2017-04-02T01:03:47.236Z,62.75
2017-04-02T01:04:53.152Z,61.72
2017-04-02T01:05:59.181Z,58.42
2017-04-02T01:07:05.316Z,60.78
2017-04-02T01:08:11.410Z,63.00
2017-04-02T01:09:17.416Z,60.80
2017-04-02T01:10:24.155Z,62.80
2017-04-02T01:11:30.047Z,66.78
2017-04-02T01:12:36.008Z,57.12
2017-04-02T01:13:42.016Z,56.88
2017-04-02T01:14:48.113Z,51.70
2017-04-02T01:15:54.898Z,51.38
2017-04-02T01:17:00.883Z,56.17
2017-04-02T01:18:06.772Z,55.25
2017-04-02T01:19:12.791Z,59.50
2017-04-02T01:20:18.848Z,61.20
2017-04-02T01:21:24.798Z,66.12
2017-04-02T01:22:30.906Z,68.48
2017-04-02T01:23:37.076Z,55.32
2017-04-02T01:24:43.135Z,64.03
2017-04-02T01:25:49.306Z,54.15
2017-04-02T01:26:55.257Z,64.12
2017-04-02T01:28:01.556Z,64.10
2017-04-02T01:29:07.525Z,66.38
2017-04-02T01:30:13.598Z,77.17
2017-04-02T01:31:19.486Z,70.40
2017-04-02T01:32:25.569Z,72.75
2017-04-02T01:33:31.792Z,73.10
2017-04-02T01:34:37.890Z,68.12
2017-04-02T01:35:43.908Z,66.12
2017-04-02T01:36:49.855Z,64.50
2017-04-02T01:37:55.929Z,63.20
2017-04-02T01:39:01.948Z,62.17
2017-04-02T01:40:08.029Z,62.12
2017-04-02T01:41:14.068Z,62.58
2017-04-02T01:42:20.220Z,60.37
2017-04-02T01:43:26.250Z,59.68
2017-04-02T01:44:32.590Z,59.90
2017-04-02T01:45:38.522Z,60.60
2017-04-02T01:46:44.620Z,58.77
2017-04-02T01:47:50.772Z,59.42
2017-04-02T01:48:56.812Z,61.52
2017-04-02T01:50:03.404Z,69.40
2017-04-02T01:51:09.533Z,66.67
2017-04-02T01:52:15.560Z,70.92
2017-04-02T01:53:21.712Z,73.52
2017-04-02T01:54:27.817Z,70.88
2017-04-02T01:55:33.870Z,70.20
2017-04-02T01:56:39.845Z,71.00
2017-04-02T01:57:45.972Z,67.38
2017-04-02T01:58:52.077Z,59.52
2017-04-02T01:59:58.185Z,62.60
2017-04-02T02:01:04.258Z,58.13
2017-04-02T02:02:10.229Z,59.70
2017-04-02T02:03:16.310Z,59.55
2017-04-02T02:04:22.380Z,59.50
2017-04-02T02:05:28.344Z,58.98
2017-04-02T02:06:34.281Z,56.68
2017-04-02T02:07:40.330Z,57.73
2017-04-02T02:08:46.389Z,60.48
2017-04-02T02:09:52.394Z,62.17
2017-04-02T02:10:58.489Z,63.35
2017-04-02T02:12:04.652Z,61.07
2017-04-02T02:13:11.354Z,63.28
2017-04-02T02:14:17.169Z,60.05
2017-04-02T02:15:23.207Z,53.93
2017-04-02T02:16:29.336Z,52.90
2017-04-02T02:17:35.283Z,53.02
2017-04-02T02:18:41.255Z,50.80
2017-04-02T02:19:47.672Z,51.33
2017-04-02T02:20:53.651Z,49.92
2017-04-02T02:21:59.678Z,56.30
2017-04-02T02:23:05.763Z,56.23
2017-04-02T02:24:11.660Z,56.42
2017-04-02T02:25:17.802Z,55.53
2017-04-02T02:26:23.813Z,51.47
2017-04-02T02:27:29.952Z,53.93
2017-04-02T02:28:35.901Z,49.38
2017-04-02T02:29:42.032Z,50.67
2017-04-02T02:30:48.341Z,56.18
2017-04-02T02:31:54.394Z,57.02
2017-04-02T02:33:00.452Z,58.60
2017-04-02T02:34:06.529Z,60.68
2017-04-02T02:35:12.686Z,61.57
2017-04-02T02:36:18.892Z,63.43
2017-04-02T02:37:25.024Z,58.60
2017-04-02T02:38:31.046Z,59.83
2017-04-02T02:39:37.095Z,60.73
2017-04-02T02:40:43.044Z,60.22
2017-04-02T02:41:49.116Z,63.72
2017-04-02T02:42:55.196Z,54.02
2017-04-02T02:44:01.113Z,57.42
2017-04-02T02:45:07.142Z,61.17
2017-04-02T02:46:13.284Z,62.20
2017-04-02T02:47:19.330Z,57.22
2017-04-02T02:48:25.863Z,57.82
2017-04-02T02:49:31.873Z,55.70
2017-04-02T02:50:37.917Z,57.05
2017-04-02T02:51:44.076Z,56.72
2017-04-02T02:52:50.036Z,53.85
2017-04-02T02:53:56.152Z,58.58
2017-04-02T02:55:02.429Z,52.68
2017-04-02T02:56:08.465Z,54.57
2017-04-02T02:57:14.682Z,50.05
2017-04-02T02:58:20.675Z,48.05
2017-04-02T02:59:26.815Z,52.52
2017-04-02T03:00:33.003Z,50.80
2017-04-02T03:01:39.088Z,49.35
2017-04-02T03:02:45.151Z,50.72
2017-04-02T03:03:51.122Z,51.02
2017-04-02T03:04:57.320Z,55.72
2017-04-02T03:06:03.378Z,52.57
2017-04-02T03:07:09.529Z,52.63
2017-04-02T03:08:15.510Z,49.32
2017-04-02T03:09:21.608Z,48.88
2017-04-02T03:10:27.690Z,53.58
2017-04-02T03:11:33.717Z,49.07
2017-04-02T03:12:39.886Z,54.60
2017-04-02T03:13:45.887Z,48.18
2017-04-02T03:14:52.067Z,47.77
2017-04-02T03:15:58.205Z,52.48
2017-04-02T03:17:04.179Z,51.28
2017-04-02T03:18:10.272Z,48.50
2017-04-02T03:19:16.384Z,49.80
2017-04-02T03:20:22.488Z,46.45
2017-04-02T03:21:28.420Z,47.85
2017-04-02T03:22:34.336Z,47.88
2017-04-02T03:23:40.503Z,49.27
2017-04-02T03:24:46.553Z,51.60
2017-04-02T03:25:52.626Z,51.67
2017-04-02T03:26:58.752Z,49.60
2017-04-02T03:28:04.773Z,48.17
2017-04-02T03:29:10.981Z,42.40
2017-04-02T03:30:16.997Z,46.35
2017-04-02T03:31:23.963Z,44.77
2017-04-02T03:32:30.132Z,45.32
2017-04-02T03:33:36.027Z,48.53
2017-04-02T03:34:42.152Z,41.15
2017-04-02T03:35:48.215Z,48.40
2017-04-02T03:36:54.161Z,49.08
2017-04-02T03:38:00.281Z,47.57
2017-04-02T03:39:06.295Z,48.20
2017-04-02T03:40:12.644Z,48.90
2017-04-02T03:41:18.664Z,48.25
2017-04-02T03:42:24.761Z,49.73
2017-04-02T03:43:30.882Z,50.82
2017-04-02T03:44:36.921Z,52.10
2017-04-02T03:45:43.132Z,46.35
2017-04-02T03:46:49.018Z,49.27
2017-04-02T03:47:55.076Z,48.57
2017-04-02T03:49:01.000Z,48.63
2017-04-02T03:50:07.112Z,50.08
2017-04-02T03:51:13.410Z,51.43
2017-04-02T03:52:20.656Z,49.68
2017-04-02T03:53:26.596Z,51.27
2017-04-02T03:54:32.668Z,46.10
2017-04-02T03:55:38.773Z,50.82
2017-04-02T03:56:44.872Z,47.35
2017-04-02T03:57:50.843Z,49.95
2017-04-02T03:58:56.981Z,50.75
2017-04-02T04:00:03.099Z,44.85
2017-04-02T04:01:09.116Z,44.25
2017-04-02T04:02:15.242Z,46.92
2017-04-02T04:03:21.352Z,46.12
2017-04-02T04:04:27.533Z,44.97
2017-04-02T04:05:33.623Z,45.30
2017-04-02T04:06:40.420Z,46.47
2017-04-02T04:07:46.320Z,45.62
2017-04-02T04:08:52.389Z,46.00
2017-04-02T04:09:58.501Z,43.53
2017-04-02T04:11:04.487Z,42.95
2017-04-02T04:12:10.596Z,45.73
2017-04-02T04:13:16.596Z,42.73
2017-04-02T04:14:22.586Z,40.88
2017-04-02T04:15:28.752Z,45.45
2017-04-02T04:16:38.503Z,43.55
2017-04-02T04:17:44.556Z,44.05
2017-04-02T04:18:50.717Z,41.83
2017-04-02T04:19:56.652Z,45.07
2017-04-02T04:21:02.964Z,41.38
2017-04-02T04:22:08.943Z,45.45
2017-04-02T04:23:15.004Z,42.07
2017-04-02T04:24:21.019Z,42.68
2017-04-02T04:25:27.125Z,46.20
2017-04-02T04:26:33.539Z,47.92
2017-04-02T04:27:39.675Z,42.65
2017-04-02T04:28:45.660Z,46.13
2017-04-02T04:29:51.675Z,47.97
2017-04-02T04:30:57.801Z,46.40
2017-04-02T04:32:03.908Z,46.17
2017-04-02T04:33:09.736Z,42.50
2017-04-02T04:34:15.833Z,43.12
2017-04-02T04:35:21.952Z,39.70
2017-04-02T04:36:27.957Z,41.38
2017-04-02T04:37:34.246Z,40.50
2017-04-02T04:38:40.132Z,41.92
2017-04-02T04:39:46.192Z,43.43
2017-04-02T04:40:53.072Z,40.67
2017-04-02T04:41:58.904Z,38.77
2017-04-02T04:43:04.953Z,40.12
2017-04-02T04:44:11.023Z,35.78
2017-04-02T04:45:17.089Z,36.82
2017-04-02T04:46:23.251Z,35.38
2017-04-02T04:47:29.391Z,38.23
2017-04-02T04:48:35.396Z,36.27
2017-04-02T04:49:41.413Z,35.93
2017-04-02T04:50:47.442Z,33.17
2017-04-02T04:51:54.444Z,34.38
2017-04-02T04:53:00.477Z,38.02
2017-04-02T04:54:07.262Z,38.78
2017-04-02T04:55:14.124Z,38.73
2017-04-02T04:56:20.120Z,43.43
2017-04-02T04:57:26.019Z,40.97
2017-04-02T04:58:32.044Z,41.50
2017-04-02T04:59:38.015Z,43.10
2017-04-02T05:00:44.002Z,41.08
2017-04-02T05:01:50.080Z,40.72
2017-04-02T05:02:56.004Z,39.55
2017-04-02T05:04:02.102Z,41.00
2017-04-02T05:05:08.905Z,38.45
2017-04-02T05:06:15.516Z,41.15
2017-04-02T05:07:23.324Z,44.08
2017-04-02T05:08:30.348Z,54.07
2017-04-02T05:09:36.719Z,45.63
2017-04-02T05:10:44.633Z,43.63
2017-04-02T05:11:50.813Z,43.60
2017-04-02T05:12:56.772Z,42.70
2017-04-02T05:14:02.994Z,44.67
2017-04-02T05:15:09.268Z,45.60
2017-04-02T05:16:15.876Z,46.12
2017-04-02T05:17:21.975Z,45.13
2017-04-02T05:18:29.382Z,42.60
2017-04-02T05:19:35.478Z,42.80
2017-04-02T05:20:41.857Z,49.27
2017-04-02T05:21:47.764Z,44.63
2017-04-02T05:22:55.471Z,45.10
2017-04-02T05:24:01.752Z,44.55
2017-04-02T05:25:07.705Z,45.17
2017-04-02T05:26:14.822Z,46.80
2017-04-02T05:27:20.889Z,48.60
2017-04-02T05:28:27.297Z,48.93
2017-04-02T05:29:33.295Z,50.05
2017-04-02T05:30:39.236Z,49.03
2017-04-02T05:31:46.237Z,51.68
2017-04-02T05:32:52.325Z,48.00
2017-04-02T05:34:01.742Z,50.15
2017-04-02T05:35:08.313Z,53.05
2017-04-02T05:36:14.339Z,54.85
2017-04-02T05:37:20.344Z,53.18
2017-04-02T05:38:27.359Z,55.05
2017-04-02T05:39:34.296Z,59.22
2017-04-02T05:40:40.126Z,55.45
2017-04-02T05:41:46.244Z,53.22
2017-04-02T05:42:52.372Z,54.77
2017-04-02T05:43:58.886Z,58.32
2017-04-02T05:45:04.801Z,55.80
2017-04-02T05:46:11.700Z,52.70
2017-04-02T05:47:18.857Z,55.62
2017-04-02T05:48:26.253Z,54.88
2017-04-02T05:49:32.484Z,56.53
2017-04-02T05:50:38.324Z,60.65
2017-04-02T05:51:44.408Z,61.48
2017-04-02T05:52:50.224Z,57.30
2017-04-02T05:53:56.324Z,57.63
2017-04-02T05:55:02.440Z,48.33
2017-04-02T05:56:09.131Z,54.62
2017-04-02T05:57:15.188Z,53.98
2017-04-02T05:58:21.180Z,57.48
2017-04-02T05:59:27.244Z,59.67
2017-04-02T06:00:33.203Z,40.50
2017-04-02T06:01:41.186Z,57.07
2017-04-02T06:02:47.252Z,56.43
2017-04-02T06:03:53.204Z,56.50
2017-04-02T06:04:59.429Z,54.23
2017-04-02T06:06:05.846Z,59.77
2017-04-02T06:07:13.945Z,54.28
2017-04-02T06:08:20.173Z,55.18
2017-04-02T06:09:26.216Z,53.08
2017-04-02T06:10:32.348Z,49.27
2017-04-02T06:11:39.895Z,49.92
2017-04-02T06:12:46.418Z,47.23
2017-04-02T06:13:52.404Z,45.57
2017-04-02T06:15:00.137Z,41.12
2017-04-02T06:16:06.340Z,42.40
2017-04-02T06:17:12.340Z,40.20
2017-04-02T06:18:18.415Z,40.03
2017-04-02T06:19:24.321Z,35.75
2017-04-02T06:20:31.455Z,38.33
2017-04-02T06:21:37.930Z,34.40
2017-04-02T06:22:44.988Z,35.05
2017-04-02T06:23:51.374Z,31.45
2017-04-02T06:24:57.319Z,28.48
2017-04-02T06:26:04.436Z,24.07
2017-04-02T06:27:10.696Z,33.45
2017-04-02T06:28:16.636Z,33.97
2017-04-02T06:29:22.849Z,33.98
2017-04-02T06:30:28.858Z,36.88
2017-04-02T06:31:36.337Z,37.65
2017-04-02T06:32:42.508Z,32.72
2017-04-02T06:33:48.552Z,32.52
2017-04-02T06:34:54.688Z,30.25
2017-04-02T06:36:00.725Z,27.77
2017-04-02T06:37:06.646Z,32.02
2017-04-02T06:38:13.241Z,29.77
2017-04-02T06:39:19.144Z,23.92
2017-04-02T06:40:25.519Z,31.38
2017-04-02T06:41:31.712Z,28.93
2017-04-02T06:42:38.048Z,29.70
2017-04-02T06:45:23.791Z,25.62
2017-04-02T06:46:31.662Z,27.77
2017-04-02T06:47:37.660Z,26.10
2017-04-02T06:48:43.608Z,29.48
2017-04-02T06:49:49.753Z,30.07
2017-04-02T06:52:37.668Z,23.80
2017-04-02T06:55:18.309Z,15.82
2017-04-02T06:56:25.191Z,22.68
2017-04-02T06:57:31.349Z,23.27
2017-04-02T06:58:37.484Z,20.10
2017-04-02T06:59:43.473Z,18.40
2017-04-02T07:00:49.762Z,25.48
2017-04-02T07:01:56.387Z,23.00
2017-04-02T07:03:02.474Z,18.63
2017-04-02T07:04:14.886Z,18.47
2017-04-02T07:05:21.896Z,22.50
2017-04-02T07:06:28.245Z,18.87
2017-04-02T07:07:34.339Z,23.32
2017-04-02T07:08:40.432Z,18.23
2017-04-02T07:09:46.584Z,22.43
2017-04-02T07:10:52.552Z,22.82
2017-04-02T07:11:58.658Z,23.27
2017-04-02T07:13:04.794Z,22.37
2017-04-02T07:14:10.910Z,22.62
2017-04-02T07:15:17.143Z,19.75
2017-04-02T07:16:23.045Z,20.38
2017-04-02T07:17:29.087Z,20.98
2017-04-02T07:20:25.434Z,18.08
2017-04-02T07:21:31.388Z,19.55
2017-04-02T07:22:37.330Z,22.08
2017-04-02T07:25:23.947Z,17.58
2017-04-02T07:26:29.996Z,20.45
2017-04-02T07:27:36.084Z,21.07
2017-04-02T07:28:42.209Z,24.45
2017-04-02T07:29:48.233Z,23.47
2017-04-02T07:30:54.350Z,19.97
2017-04-02T07:32:00.643Z,22.75
2017-04-02T07:33:06.556Z,22.10
2017-04-02T07:34:12.409Z,21.43
2017-04-02T07:35:18.452Z,19.67
2017-04-02T07:36:24.408Z,21.72
2017-04-02T07:37:30.777Z,21.03
2017-04-02T07:38:36.724Z,20.20
2017-04-02T07:39:42.752Z,22.37
2017-04-02T07:40:48.823Z,23.20
2017-04-02T07:41:54.884Z,19.75
2017-04-02T07:43:01.605Z,19.83
2017-04-02T07:44:07.739Z,22.55
2017-04-02T07:45:13.788Z,21.93
2017-04-02T07:46:20.579Z,20.40
2017-04-02T07:47:26.437Z,20.48
2017-04-02T07:48:32.566Z,21.27
2017-04-02T07:49:39.480Z,21.18
2017-04-02T07:50:45.449Z,21.22
2017-04-02T07:51:51.620Z,20.00
2017-04-02T07:52:57.584Z,21.38
2017-04-02T07:54:03.844Z,19.65
2017-04-02T07:55:10.642Z,22.60
2017-04-02T07:56:16.751Z,19.65
2017-04-02T07:57:22.873Z,20.80
2017-04-02T07:58:29.142Z,17.18
2017-04-02T07:59:35.516Z,19.42
2017-04-02T08:00:41.591Z,17.63
2017-04-02T08:01:47.730Z,17.32
2017-04-02T08:02:53.853Z,17.60
2017-04-02T08:04:00.694Z,20.23
2017-04-02T08:05:06.976Z,18.50
2017-04-02T08:06:13.767Z,17.82
2017-04-02T08:07:20.893Z,18.43
2017-04-02T08:08:26.984Z,18.25
2017-04-02T08:09:33.001Z,18.22
2017-04-02T08:10:38.937Z,17.70
2017-04-02T08:11:45.064Z,18.82
2017-04-02T08:12:51.227Z,14.35
2017-04-02T08:13:57.259Z,16.25
2017-04-02T08:15:04.042Z,17.18
2017-04-02T08:16:10.273Z,18.17
2017-04-02T08:17:16.190Z,17.92
2017-04-02T08:18:22.237Z,12.88
2017-04-02T08:19:28.277Z,15.32
2017-04-02T08:20:35.011Z,16.15
2017-04-02T08:21:41.239Z,16.05
2017-04-02T08:22:47.164Z,15.75
2017-04-02T08:23:53.156Z,12.92
2017-04-02T08:24:59.137Z,14.32
2017-04-02T08:26:05.065Z,14.62
2017-04-02T08:27:11.259Z,13.40
2017-04-02T08:28:17.169Z,13.42
2017-04-02T08:29:23.248Z,12.70
2017-04-02T08:30:36.077Z,13.02
2017-04-02T08:31:41.982Z,11.87
2017-04-02T08:32:48.897Z,10.23
2017-04-02T08:33:54.896Z,11.23
2017-04-02T08:35:00.962Z,10.22
2017-04-02T08:36:06.899Z,10.95
2017-04-02T08:37:13.213Z,11.33
2017-04-02T08:38:19.493Z,11.40
2017-04-02T08:39:25.637Z,10.62
2017-04-02T08:40:35.383Z,10.50
2017-04-02T08:41:41.884Z,11.33
2017-04-02T08:42:47.991Z,10.15
2017-04-02T08:43:54.057Z,9.77
2017-04-02T08:45:00.503Z,10.38
2017-04-02T08:46:07.600Z,9.53
2017-04-02T08:47:13.664Z,10.08
2017-04-02T08:48:19.632Z,10.93
2017-04-02T08:49:27.844Z,8.47
2017-04-02T08:50:34.027Z,10.45
2017-04-02T08:51:40.073Z,8.50
2017-04-02T08:52:47.754Z,9.02
2017-04-02T08:53:55.399Z,8.95
2017-04-02T08:55:01.620Z,7.35
2017-04-02T08:56:07.572Z,9.98
2017-04-02T08:57:14.333Z,9.58
2017-04-02T08:58:20.404Z,8.67
2017-04-02T08:59:26.471Z,7.73
2017-04-02T09:00:33.015Z,8.42
2017-04-02T09:04:43.464Z,8.93
2017-04-02T09:05:50.337Z,8.32
2017-04-02T09:06:56.480Z,8.65
2017-04-02T09:08:03.273Z,8.78
2017-04-02T09:09:09.356Z,8.03
2017-04-02T09:10:15.413Z,8.42
2017-04-02T09:11:21.704Z,8.18
2017-04-02T09:12:27.946Z,8.47
2017-04-02T09:13:37.304Z,8.17
2017-04-02T09:14:43.401Z,8.90
2017-04-02T09:15:49.425Z,7.00
2017-04-02T09:16:55.644Z,5.47
2017-04-02T09:18:01.645Z,6.68
2017-04-02T09:19:07.991Z,7.95
2017-04-02T09:20:14.629Z,6.98
2017-04-02T09:21:20.682Z,8.42
2017-04-02T09:22:26.661Z,8.27
2017-04-02T09:23:32.864Z,7.32
2017-04-02T09:24:38.790Z,6.63
2017-04-02T09:25:44.885Z,7.20
2017-04-02T09:26:51.027Z,7.28
2017-04-02T09:27:57.064Z,6.63
2017-04-02T09:29:02.976Z,7.32
2017-04-02T09:30:09.074Z,7.83
2017-04-02T09:31:16.274Z,5.93
2017-04-02T09:32:22.332Z,6.77
2017-04-02T09:33:28.399Z,7.95
2017-04-02T09:34:34.387Z,8.60
2017-04-02T09:35:40.428Z,8.30
2017-04-02T09:36:46.351Z,8.00
2017-04-02T09:37:52.439Z,7.55
2017-04-02T09:38:58.772Z,9.63
2017-04-02T09:40:05.796Z,9.03
2017-04-02T09:41:11.837Z,8.35
2017-04-02T09:42:18.033Z,7.58
2017-04-02T09:43:24.368Z,7.80
2017-04-02T09:44:31.930Z,7.03
2017-04-02T09:45:38.703Z,8.27
2017-04-02T09:46:44.900Z,8.88
2017-04-02T09:47:50.931Z,7.93
2017-04-02T09:48:57.004Z,7.12
2017-04-02T09:50:03.374Z,6.37
2017-04-02T09:51:09.325Z,7.15
2017-04-02T09:52:15.486Z,6.48
2017-04-02T09:53:21.868Z,6.97
2017-04-02T09:54:27.911Z,5.97
2017-04-02T09:55:34.856Z,6.23
2017-04-02T09:56:40.736Z,6.42
2017-04-02T09:57:46.683Z,7.48
2017-04-02T09:58:52.660Z,5.83
2017-04-02T09:59:58.791Z,6.93
2017-04-02T10:01:04.887Z,6.23
2017-04-02T10:02:11.029Z,7.30
2017-04-02T10:03:17.707Z,7.53
2017-04-02T10:04:23.720Z,5.55
2017-04-02T10:05:30.065Z,8.10
2017-04-02T10:06:36.191Z,7.60
2017-04-02T10:07:42.276Z,7.23
2017-04-02T10:08:48.186Z,7.35
2017-04-02T10:09:54.108Z,8.08
2017-04-02T10:11:00.222Z,8.55
2017-04-02T10:12:06.283Z,7.32
2017-04-02T10:13:12.293Z,6.78
2017-04-02T10:14:18.353Z,9.08
2017-04-02T10:15:24.300Z,7.15
2017-04-02T10:16:30.281Z,8.55
2017-04-02T10:17:36.504Z,6.35
2017-04-02T10:18:42.677Z,6.18
2017-04-02T10:19:48.713Z,6.75
2017-04-02T10:20:54.839Z,7.72
2017-04-02T10:22:00.906Z,7.48
2017-04-02T10:23:07.048Z,8.55
2017-04-02T10:24:13.074Z,8.30
2017-04-02T10:25:19.212Z,9.23
2017-04-02T10:26:25.132Z,10.33
2017-04-02T10:27:32.196Z,6.87
2017-04-02T10:28:38.553Z,9.47
2017-04-02T10:29:44.808Z,9.85
2017-04-02T10:30:50.987Z,10.70
2017-04-02T10:31:56.888Z,10.95
2017-04-02T10:33:03.186Z,10.52
2017-04-02T10:34:10.138Z,10.65
2017-04-02T10:35:16.899Z,9.65
2017-04-02T10:36:22.864Z,9.40
2017-04-02T10:37:29.004Z,9.50
2017-04-02T10:38:35.115Z,10.35
2017-04-02T10:39:41.147Z,8.55
2017-04-02T10:40:47.808Z,10.75
2017-04-02T10:41:54.472Z,8.83
2017-04-02T10:43:01.363Z,10.18
2017-04-02T10:44:07.425Z,9.07
2017-04-02T10:45:13.557Z,8.53
2017-04-02T10:47:54.512Z,8.48
2017-04-02T10:49:00.597Z,8.27
2017-04-02T10:50:06.624Z,10.20
2017-04-02T10:51:12.737Z,7.77
2017-04-02T10:52:18.701Z,9.00
2017-04-02T10:53:25.242Z,6.93
2017-04-02T10:54:31.327Z,10.12
2017-04-02T10:55:37.396Z,9.00
2017-04-02T10:56:43.453Z,7.10
2017-04-02T10:57:49.573Z,9.13
2017-04-02T10:58:55.558Z,8.45
2017-04-02T11:00:01.541Z,9.35
2017-04-02T11:01:07.810Z,8.18
2017-04-02T11:02:14.168Z,8.72
2017-04-02T11:03:20.204Z,9.82
2017-04-02T11:04:26.224Z,10.62
2017-04-02T11:05:32.390Z,10.45
2017-04-02T11:06:38.386Z,10.40
2017-04-02T11:07:44.576Z,10.05
2017-04-02T11:08:50.533Z,9.50
2017-04-02T11:09:56.548Z,9.78
2017-04-02T11:11:03.201Z,9.98
2017-04-02T11:12:09.246Z,10.85
2017-04-02T11:13:15.320Z,9.65
2017-04-02T11:14:21.332Z,10.77
2017-04-02T11:15:27.305Z,10.17
2017-04-02T11:16:34.340Z,8.20
2017-04-02T11:17:40.437Z,9.95
2017-04-02T11:18:46.629Z,9.97
2017-04-02T11:19:52.585Z,10.37
2017-04-02T11:20:58.671Z,8.03
2017-04-02T11:22:04.725Z,8.95
2017-04-02T11:23:10.737Z,9.93
2017-04-02T11:24:16.838Z,10.05
2017-04-02T11:25:22.791Z,9.85
2017-04-02T11:26:28.949Z,9.60
2017-04-02T11:27:34.923Z,9.15
2017-04-02T11:28:40.905Z,9.30
2017-04-02T11:29:47.211Z,9.65
2017-04-02T11:30:53.188Z,9.58
2017-04-02T11:31:59.168Z,10.18
2017-04-02T11:33:05.163Z,7.28
2017-04-02T11:34:11.172Z,9.52
2017-04-02T11:35:17.374Z,9.98
2017-04-02T11:36:23.433Z,9.20
2017-04-02T11:37:29.470Z,10.53
2017-04-02T11:38:35.557Z,10.82
2017-04-02T11:39:41.586Z,10.12
2017-04-02T11:40:48.387Z,9.93
2017-04-02T11:41:54.332Z,9.97
2017-04-02T11:43:00.380Z,10.35
2017-04-02T11:44:06.324Z,8.62
2017-04-02T11:45:12.365Z,9.98
2017-04-02T11:46:18.394Z,10.97
2017-04-02T11:47:24.530Z,9.83
2017-04-02T11:48:31.656Z,10.38
2017-04-02T11:49:36.811Z,10.70
2017-04-02T11:50:42.887Z,10.47
2017-04-02T11:51:49.006Z,11.47
2017-04-02T11:52:54.996Z,10.43
2017-04-02T11:54:01.004Z,8.18
2017-04-02T11:55:07.174Z,10.52
2017-04-02T11:56:13.992Z,10.15
2017-04-02T11:57:20.333Z,10.72
2017-04-02T11:58:26.450Z,9.48
2017-04-02T11:59:32.527Z,9.72
2017-04-02T12:00:38.521Z,10.28
2017-04-02T12:01:44.524Z,8.55
2017-04-02T12:02:50.783Z,9.00
2017-04-02T12:03:56.709Z,7.92
2017-04-02T12:05:02.741Z,8.40
2017-04-02T12:06:08.895Z,8.45
2017-04-02T12:07:14.828Z,10.75
2017-04-02T12:08:21.124Z,9.25
2017-04-02T12:09:27.180Z,10.70
2017-04-02T12:10:33.207Z,9.83
2017-04-02T12:11:39.358Z,8.37
2017-04-02T12:12:45.284Z,7.03
2017-04-02T12:13:51.359Z,8.12
2017-04-02T12:14:57.252Z,7.85
2017-04-02T12:16:03.360Z,9.15
2017-04-02T12:17:09.331Z,7.83
2017-04-02T12:18:15.345Z,6.18
2017-04-02T12:19:21.436Z,6.38
2017-04-02T12:20:27.485Z,7.90
2017-04-02T12:21:33.400Z,7.92
2017-04-02T12:22:39.442Z,6.78
2017-04-02T12:23:45.288Z,7.27
2017-04-02T12:24:51.247Z,7.48
2017-04-02T12:25:57.429Z,7.72
2017-04-02T12:27:03.260Z,6.93
2017-04-02T12:28:09.251Z,7.82
2017-04-02T12:29:15.198Z,7.28
2017-04-02T12:30:22.024Z,6.50
2017-04-02T12:31:28.049Z,5.50
2017-04-02T12:32:34.089Z,5.48
2017-04-02T12:33:39.982Z,4.67
2017-04-02T12:34:46.119Z,5.05
2017-04-02T12:35:52.431Z,6.13
2017-04-02T12:36:59.167Z,4.98
2017-04-02T12:38:05.404Z,5.45
2017-04-02T12:39:11.437Z,4.83
2017-04-02T12:40:18.233Z,5.22
2017-04-02T12:41:24.268Z,5.10
2017-04-02T12:42:30.353Z,5.18
2017-04-02T12:43:36.423Z,6.23
2017-04-02T12:44:43.283Z,6.63
2017-04-02T12:45:49.263Z,7.77
2017-04-02T12:46:55.348Z,8.85
2017-04-02T12:48:01.320Z,7.47
2017-04-02T12:49:07.427Z,12.15
2017-04-02T12:50:14.153Z,8.65
2017-04-02T12:51:20.303Z,7.87
2017-04-02T12:52:26.521Z,10.13
2017-04-02T12:53:32.616Z,8.60
2017-04-02T12:54:38.708Z,8.75
2017-04-02T12:55:44.935Z,9.68
2017-04-02T12:56:50.907Z,7.47
2017-04-02T12:57:57.406Z,7.08
2017-04-02T12:59:03.461Z,6.90
2017-04-02T13:00:09.456Z,9.72
2017-04-02T13:01:15.625Z,9.97
2017-04-02T13:02:21.622Z,7.38
2017-04-02T13:03:27.841Z,9.78
2017-04-02T13:04:35.046Z,9.88
2017-04-02T13:05:42.854Z,8.97
2017-04-02T13:06:50.016Z,9.62
2017-04-02T13:07:56.076Z,7.98
2017-04-02T13:09:02.216Z,9.00
2017-04-02T13:10:08.156Z,8.32
2017-04-02T13:11:14.184Z,11.03
2017-04-02T13:12:20.286Z,8.87
2017-04-02T13:13:26.507Z,7.67
2017-04-02T13:14:33.380Z,8.62
2017-04-02T13:15:39.474Z,13.42
2017-04-02T13:16:45.378Z,9.10
2017-04-02T13:17:51.434Z,10.97
2017-04-02T13:18:57.428Z,10.58
2017-04-02T13:20:03.679Z,11.60
2017-04-02T13:21:09.683Z,5.15
2017-04-02T13:22:15.841Z,10.02
2017-04-02T13:23:21.918Z,9.18
2017-04-02T13:24:28.170Z,7.97
2017-04-02T13:25:34.552Z,8.05
2017-04-02T13:26:40.723Z,8.50
2017-04-02T13:27:46.850Z,7.57
2017-04-02T13:28:52.808Z,7.48
2017-04-02T13:29:58.991Z,6.67
2017-04-02T13:31:05.088Z,7.07
2017-04-02T13:32:11.000Z,5.90
2017-04-02T13:33:17.943Z,6.95
2017-04-02T13:34:24.134Z,6.37
2017-04-02T13:35:30.210Z,6.62
2017-04-02T13:36:36.565Z,7.00
2017-04-02T13:37:42.506Z,4.90
2017-04-02T13:38:49.460Z,6.42
2017-04-02T13:39:55.461Z,5.88
2017-04-02T13:41:01.342Z,5.20
2017-04-02T13:42:07.557Z,5.32
2017-04-02T13:43:13.702Z,5.20
2017-04-02T13:44:19.681Z,6.10
2017-04-02T13:45:26.373Z,6.05
2017-04-02T13:46:33.131Z,5.38
2017-04-02T13:47:39.085Z,5.95
2017-04-02T13:48:45.124Z,5.73
2017-04-02T13:49:51.248Z,5.22
2017-04-02T13:50:57.142Z,4.95
2017-04-02T13:52:03.107Z,6.50
2017-04-02T13:53:09.525Z,6.13
2017-04-02T13:54:15.557Z,5.27
2017-04-02T13:55:21.924Z,4.88
2017-04-02T13:56:27.968Z,4.32
2017-04-02T13:57:34.101Z,7.42
2017-04-02T13:58:40.439Z,7.30
2017-04-02T13:59:46.492Z,6.75
2017-04-02T14:00:52.572Z,9.32
2017-04-02T14:01:58.745Z,6.85
2017-04-02T14:03:04.981Z,6.63
2017-04-02T14:04:11.110Z,5.18
2017-04-02T14:05:17.154Z,6.18
2017-04-02T14:06:23.176Z,6.47
2017-04-02T14:07:29.413Z,6.75
2017-04-02T14:08:35.496Z,8.07
2017-04-02T14:09:41.432Z,7.27
2017-04-02T14:10:48.264Z,5.77
2017-04-02T14:11:55.228Z,7.82
2017-04-02T14:13:02.264Z,10.45
2017-04-02T14:14:08.524Z,8.52
2017-04-02T14:15:14.845Z,8.48
2017-04-02T14:16:21.144Z,9.27
2017-04-02T14:17:27.120Z,8.75
2017-04-02T14:18:33.191Z,9.70
2017-04-02T14:19:39.281Z,9.73
2017-04-02T14:20:46.240Z,8.18
2017-04-02T14:21:52.146Z,9.07
2017-04-02T14:22:58.133Z,7.25
2017-04-02T14:24:04.037Z,8.37
2017-04-02T14:25:10.101Z,9.60
2017-04-02T14:26:16.127Z,8.67
2017-04-02T14:27:22.096Z,7.32
2017-04-02T14:28:28.176Z,8.47
2017-04-02T14:29:35.064Z,5.20
2017-04-02T14:30:41.074Z,5.42
2017-04-02T14:31:47.477Z,5.78
2017-04-02T14:32:54.324Z,5.65
2017-04-02T14:34:00.642Z,6.25
2017-04-02T14:35:06.682Z,7.33
2017-04-02T14:36:12.739Z,7.35